Terminal Aerodrome Forecast
Issued by NWS

Current Version | Previous Version | Text Only | Print | Product List | Glossary On
Versions: 1 2 3 4 5 6 7 8 9 10 11 12 13 14 15 16 17 18
000
FTUS46 KLOX 312330
TAFSBA
TAF
KSBA 312330Z 0100/0124 22009KT P6SM SCT150
     FM010400 VRB03KT P6SM SCT150
     FM011000 VRB03KT 6SM BR BKN010
     FM011500 11003KT 5SM BR OVC007
     FM011900 19006KT 6SM HZ SCT012
     FM012200 24009KT P6SM SCT250=

USA.gov is the U.S. government's official web portal to all federal, state and local government web resources and services.